Terminal Aerodrome Forecast
Issued by NWS

Home | Current Version | Previous Version | Text Only | Print | Product List | Glossary On
Versions: 1 2 3 4 5 6 7 8 9 10 11 12 13 14 15
000
FTUS45 KVEF 311725
TAFVGT
TAF
KVGT 311725Z 3118/0118 14007KT P6SM FEW110 SCT150 SCT200
     FM312200 19008KT P6SM VCTS SCT090CB BKN150
      TEMPO 3122/0102 VRB15G30KT 6SM -TSRA FEW060 SCT080CB BKN110
     FM010300 17008KT P6SM SCT100 BKN150 BKN200
     FM011300 35004KT P6SM VCTS SCT090CB BKN150=

USA.gov is the U.S. government's official web portal to all federal, state and local government web resources and services.